sensor_id;sensor_type;location;lat;lon;timestamp;P1;durP1;ratioP1;P2;durP2;ratioP2
956;SDS011;465;48.802;9.224;2022-11-20T00:00:37;16.43;;;12.23;;
956;SDS011;465;48.802;9.224;2022-11-20T00:03:04;16.27;;;13.63;;
956;SDS011;465;48.802;9.224;2022-11-20T00:05:33;16.80;;;13.80;;
956;SDS011;465;48.802;9.224;2022-11-20T00:07:59;16.83;;;12.57;;
956;SDS011;465;48.802;9.224;2022-11-20T00:10:26;17.63;;;13.97;;
956;SDS011;465;48.802;9.224;2022-11-20T00:12:53;14.33;;;12.30;;
956;SDS011;465;48.802;9.224;2022-11-20T00:15:20;15.70;;;13.10;;
956;SDS011;465;48.802;9.224;2022-11-20T00:17:46;16.67;;;13.33;;
956;SDS011;465;48.802;9.224;2022-11-20T00:20:13;18.17;;;13.70;;
956;SDS011;465;48.802;9.224;2022-11-20T00:22:42;18.83;;;13.73;;
956;SDS011;465;48.802;9.224;2022-11-20T00:25:09;20.20;;;14.60;;
956;SDS011;465;48.802;9.224;2022-11-20T00:27:36;18.63;;;13.80;;
956;SDS011;465;48.802;9.224;2022-11-20T00:30:03;20.80;;;13.83;;
956;SDS011;465;48.802;9.224;2022-11-20T00:32:30;17.40;;;13.20;;
956;SDS011;465;48.802;9.224;2022-11-20T00:34:57;16.20;;;14.17;;
956;SDS011;465;48.802;9.224;2022-11-20T00:37:24;16.50;;;12.93;;
956;SDS011;465;48.802;9.224;2022-11-20T00:39:52;17.33;;;14.80;;
956;SDS011;465;48.802;9.224;2022-11-20T00:42:18;16.97;;;13.90;;
956;SDS011;465;48.802;9.224;2022-11-20T00:44:45;18.53;;;12.87;;
956;SDS011;465;48.802;9.224;2022-11-20T00:47:13;18.03;;;14.13;;
956;SDS011;465;48.802;9.224;2022-11-20T00:49:40;20.93;;;14.97;;
956;SDS011;465;48.802;9.224;2022-11-20T00:52:07;22.30;;;14.83;;
956;SDS011;465;48.802;9.224;2022-11-20T00:54:33;17.37;;;14.07;;
956;SDS011;465;48.802;9.224;2022-11-20T00:57:01;16.43;;;13.73;;
956;SDS011;465;48.802;9.224;2022-11-20T00:59:28;15.20;;;13.00;;
956;SDS011;465;48.802;9.224;2022-11-20T01:01:55;18.47;;;13.50;;
956;SDS011;465;48.802;9.224;2022-11-20T01:04:22;15.77;;;13.20;;
956;SDS011;465;48.802;9.224;2022-11-20T01:06:48;14.40;;;12.70;;
956;SDS011;465;48.802;9.224;2022-11-20T01:09:15;18.40;;;14.03;;
956;SDS011;465;48.802;9.224;2022-11-20T01:11:43;18.20;;;13.90;;
956;SDS011;465;48.802;9.224;2022-11-20T01:14:12;14.50;;;12.90;;
956;SDS011;465;48.802;9.224;2022-11-20T01:16:41;16.30;;;13.00;;
956;SDS011;465;48.802;9.224;2022-11-20T01:19:09;16.90;;;13.40;;
956;SDS011;465;48.802;9.224;2022-11-20T01:21:38;16.27;;;12.83;;
956;SDS011;465;48.802;9.224;2022-11-20T01:24:07;16.53;;;12.77;;
956;SDS011;465;48.802;9.224;2022-11-20T01:26:37;16.33;;;13.70;;
956;SDS011;465;48.802;9.224;2022-11-20T01:29:05;19.43;;;15.07;;
956;SDS011;465;48.802;9.224;2022-11-20T01:31:34;21.70;;;13.43;;
956;SDS011;465;48.802;9.224;2022-11-20T01:34:03;19.67;;;13.47;;
956;SDS011;465;48.802;9.224;2022-11-20T01:36:32;14.93;;;11.73;;
956;SDS011;465;48.802;9.224;2022-11-20T01:39:01;16.20;;;12.00;;
956;SDS011;465;48.802;9.224;2022-11-20T01:41:33;14.80;;;11.50;;
956;SDS011;465;48.802;9.224;2022-11-20T01:44:18;15.00;;;11.93;;
956;SDS011;465;48.802;9.224;2022-11-20T01:46:52;10.37;;;8.70;;
956;SDS011;465;48.802;9.224;2022-11-20T01:49:23;10.17;;;7.80;;
956;SDS011;465;48.802;9.224;2022-11-20T01:51:53;11.03;;;9.43;;
956;SDS011;465;48.802;9.224;2022-11-20T01:54:25;7.63;;;6.43;;
956;SDS011;465;48.802;9.224;2022-11-20T01:56:56;10.67;;;7.57;;
956;SDS011;465;48.802;9.224;2022-11-20T01:59:25;9.63;;;8.57;;
956;SDS011;465;48.802;9.224;2022-11-20T02:01:55;7.27;;;6.37;;
956;SDS011;465;48.802;9.224;2022-11-20T02:04:22;7.60;;;6.30;;
956;SDS011;465;48.802;9.224;2022-11-20T02:06:51;6.37;;;5.77;;
956;SDS011;465;48.802;9.224;2022-11-20T02:09:23;7.00;;;5.90;;
956;SDS011;465;48.802;9.224;2022-11-20T02:11:50;8.77;;;7.33;;
956;SDS011;465;48.802;9.224;2022-11-20T02:14:18;8.00;;;6.30;;
956;SDS011;465;48.802;9.224;2022-11-20T02:16:45;6.33;;;5.63;;
956;SDS011;465;48.802;9.224;2022-11-20T02:19:16;8.00;;;6.87;;
956;SDS011;465;48.802;9.224;2022-11-20T02:21:49;6.73;;;6.03;;
956;SDS011;465;48.802;9.224;2022-11-20T02:24:25;8.50;;;5.27;;
956;SDS011;465;48.802;9.224;2022-11-20T02:26:53;10.40;;;6.10;;
956;SDS011;465;48.802;9.224;2022-11-20T02:29:23;6.80;;;5.17;;
956;SDS011;465;48.802;9.224;2022-11-20T02:31:53;11.10;;;5.30;;
956;SDS011;465;48.802;9.224;2022-11-20T02:34:21;9.03;;;4.83;;
956;SDS011;465;48.802;9.224;2022-11-20T02:36:48;6.33;;;4.53;;
956;SDS011;465;48.802;9.224;2022-11-20T02:39:18;5.97;;;5.00;;
956;SDS011;465;48.802;9.224;2022-11-20T02:41:47;4.90;;;4.30;;
956;SDS011;465;48.802;9.224;2022-11-20T02:44:14;4.33;;;3.60;;
956;SDS011;465;48.802;9.224;2022-11-20T02:46:41;4.80;;;3.30;;
956;SDS011;465;48.802;9.224;2022-11-20T02:49:07;4.33;;;3.50;;
956;SDS011;465;48.802;9.224;2022-11-20T02:51:34;5.83;;;3.93;;
956;SDS011;465;48.802;9.224;2022-11-20T02:54:01;4.80;;;3.83;;
956;SDS011;465;48.802;9.224;2022-11-20T02:56:28;7.40;;;4.30;;
956;SDS011;465;48.802;9.224;2022-11-20T02:58:56;4.67;;;4.27;;
956;SDS011;465;48.802;9.224;2022-11-20T03:01:23;4.37;;;3.83;;
956;SDS011;465;48.802;9.224;2022-11-20T03:03:50;5.00;;;4.50;;
956;SDS011;465;48.802;9.224;2022-11-20T03:06:19;5.87;;;4.90;;
956;SDS011;465;48.802;9.224;2022-11-20T03:08:46;5.73;;;5.10;;
956;SDS011;465;48.802;9.224;2022-11-20T03:11:12;4.80;;;4.13;;
956;SDS011;465;48.802;9.224;2022-11-20T03:13:39;5.40;;;4.60;;
956;SDS011;465;48.802;9.224;2022-11-20T03:16:08;4.30;;;3.90;;
956;SDS011;465;48.802;9.224;2022-11-20T03:18:36;3.80;;;3.43;;
956;SDS011;465;48.802;9.224;2022-11-20T03:21:03;3.87;;;3.10;;
956;SDS011;465;48.802;9.224;2022-11-20T03:23:30;4.40;;;4.00;;
956;SDS011;465;48.802;9.224;2022-11-20T03:28:46;4.47;;;4.03;;
956;SDS011;465;48.802;9.224;2022-11-20T03:31:15;4.20;;;3.60;;
956;SDS011;465;48.802;9.224;2022-11-20T03:33:44;5.03;;;4.23;;
956;SDS011;465;48.802;9.224;2022-11-20T03:36:11;4.00;;;3.70;;
956;SDS011;465;48.802;9.224;2022-11-20T03:38:39;4.07;;;3.77;;
956;SDS011;465;48.802;9.224;2022-11-20T03:41:07;4.50;;;3.47;;
956;SDS011;465;48.802;9.224;2022-11-20T03:43:35;5.40;;;3.70;;
956;SDS011;465;48.802;9.224;2022-11-20T03:46:02;4.03;;;3.73;;
956;SDS011;465;48.802;9.224;2022-11-20T03:48:31;8.60;;;3.60;;
956;SDS011;465;48.802;9.224;2022-11-20T03:51:08;5.20;;;3.87;;
956;SDS011;465;48.802;9.224;2022-11-20T03:53:37;4.27;;;3.40;;
956;SDS011;465;48.802;9.224;2022-11-20T03:56:05;4.63;;;3.67;;
956;SDS011;465;48.802;9.224;2022-11-20T03:58:32;3.53;;;3.23;;
956;SDS011;465;48.802;9.224;2022-11-20T04:01:04;4.10;;;3.70;;
956;SDS011;465;48.802;9.224;2022-11-20T04:03:33;4.87;;;3.87;;
956;SDS011;465;48.802;9.224;2022-11-20T04:06:01;6.43;;;4.57;;
956;SDS011;465;48.802;9.224;2022-11-20T04:08:29;5.93;;;4.13;;
956;SDS011;465;48.802;9.224;2022-11-20T04:10:56;5.93;;;3.77;;
956;SDS011;465;48.802;9.224;2022-11-20T04:13:22;4.20;;;3.60;;
956;SDS011;465;48.802;9.224;2022-11-20T04:15:49;3.83;;;3.50;;
956;SDS011;465;48.802;9.224;2022-11-20T04:18:16;5.17;;;4.03;;
956;SDS011;465;48.802;9.224;2022-11-20T04:20:44;4.83;;;4.10;;
956;SDS011;465;48.802;9.224;2022-11-20T04:23:11;4.77;;;3.90;;
956;SDS011;465;48.802;9.224;2022-11-20T04:25:39;4.30;;;3.87;;
956;SDS011;465;48.802;9.224;2022-11-20T04:28:05;4.03;;;3.27;;
956;SDS011;465;48.802;9.224;2022-11-20T04:30:32;5.33;;;4.03;;
956;SDS011;465;48.802;9.224;2022-11-20T04:33:01;4.00;;;3.60;;
956;SDS011;465;48.802;9.224;2022-11-20T04:35:28;4.17;;;3.80;;
956;SDS011;465;48.802;9.224;2022-11-20T04:37:56;5.33;;;4.77;;
956;SDS011;465;48.802;9.224;2022-11-20T04:40:23;4.47;;;3.83;;
956;SDS011;465;48.802;9.224;2022-11-20T04:42:49;4.93;;;4.00;;
956;SDS011;465;48.802;9.224;2022-11-20T04:45:16;5.90;;;4.70;;
956;SDS011;465;48.802;9.224;2022-11-20T04:47:43;6.40;;;4.30;;
956;SDS011;465;48.802;9.224;2022-11-20T04:50:10;4.10;;;3.43;;
956;SDS011;465;48.802;9.224;2022-11-20T04:52:37;4.10;;;3.70;;
956;SDS011;465;48.802;9.224;2022-11-20T04:55:06;5.03;;;4.20;;
956;SDS011;465;48.802;9.224;2022-11-20T04:57:33;3.97;;;3.57;;
956;SDS011;465;48.802;9.224;2022-11-20T05:00:00;4.90;;;4.30;;
956;SDS011;465;48.802;9.224;2022-11-20T05:02:27;5.87;;;4.30;;
956;SDS011;465;48.802;9.224;2022-11-20T05:04:53;4.40;;;4.00;;
956;SDS011;465;48.802;9.224;2022-11-20T05:07:20;5.80;;;4.37;;
956;SDS011;465;48.802;9.224;2022-11-20T05:09:47;4.40;;;3.80;;
956;SDS011;465;48.802;9.224;2022-11-20T05:12:15;4.23;;;3.83;;
956;SDS011;465;48.802;9.224;2022-11-20T05:14:42;4.63;;;4.20;;
956;SDS011;465;48.802;9.224;2022-11-20T05:17:09;4.83;;;4.23;;
956;SDS011;465;48.802;9.224;2022-11-20T05:19:37;5.20;;;4.63;;
956;SDS011;465;48.802;9.224;2022-11-20T05:22:04;4.30;;;3.90;;
956;SDS011;465;48.802;9.224;2022-11-20T05:24:31;8.13;;;4.03;;
956;SDS011;465;48.802;9.224;2022-11-20T05:26:58;5.10;;;3.80;;
956;SDS011;465;48.802;9.224;2022-11-20T05:29:26;4.03;;;3.50;;
956;SDS011;465;48.802;9.224;2022-11-20T05:31:53;4.07;;;3.67;;
956;SDS011;465;48.802;9.224;2022-11-20T05:34:21;4.10;;;3.70;;
956;SDS011;465;48.802;9.224;2022-11-20T05:36:48;4.67;;;4.10;;
956;SDS011;465;48.802;9.224;2022-11-20T05:39:15;3.77;;;3.47;;
956;SDS011;465;48.802;9.224;2022-11-20T05:41:42;4.30;;;3.50;;
956;SDS011;465;48.802;9.224;2022-11-20T05:44:10;4.07;;;3.70;;
956;SDS011;465;48.802;9.224;2022-11-20T05:46:38;5.10;;;3.60;;
956;SDS011;465;48.802;9.224;2022-11-20T05:49:05;5.17;;;4.20;;
956;SDS011;465;48.802;9.224;2022-11-20T05:51:31;6.73;;;3.50;;
956;SDS011;465;48.802;9.224;2022-11-20T05:53:58;4.20;;;3.80;;
956;SDS011;465;48.802;9.224;2022-11-20T05:56:25;4.10;;;3.63;;
956;SDS011;465;48.802;9.224;2022-11-20T05:58:52;4.33;;;3.03;;
956;SDS011;465;48.802;9.224;2022-11-20T06:01:19;5.13;;;3.60;;
956;SDS011;465;48.802;9.224;2022-11-20T06:03:49;3.97;;;3.50;;
956;SDS011;465;48.802;9.224;2022-11-20T06:06:16;3.60;;;3.30;;
956;SDS011;465;48.802;9.224;2022-11-20T06:08:45;4.27;;;3.87;;
956;SDS011;465;48.802;9.224;2022-11-20T06:11:12;4.00;;;3.60;;
956;SDS011;465;48.802;9.224;2022-11-20T06:13:40;4.40;;;2.90;;
956;SDS011;465;48.802;9.224;2022-11-20T06:16:07;4.93;;;3.40;;
956;SDS011;465;48.802;9.224;2022-11-20T06:18:34;5.83;;;3.50;;
956;SDS011;465;48.802;9.224;2022-11-20T06:21:03;5.13;;;3.40;;
956;SDS011;465;48.802;9.224;2022-11-20T06:23:32;7.13;;;3.83;;
956;SDS011;465;48.802;9.224;2022-11-20T06:26:01;3.77;;;2.90;;
956;SDS011;465;48.802;9.224;2022-11-20T06:28:28;7.70;;;3.80;;
956;SDS011;465;48.802;9.224;2022-11-20T06:30:55;4.10;;;3.30;;
956;SDS011;465;48.802;9.224;2022-11-20T06:33:22;4.07;;;3.67;;
956;SDS011;465;48.802;9.224;2022-11-20T06:35:49;2.90;;;2.70;;
956;SDS011;465;48.802;9.224;2022-11-20T06:38:18;3.13;;;2.77;;
956;SDS011;465;48.802;9.224;2022-11-20T06:40:45;4.13;;;3.27;;
956;SDS011;465;48.802;9.224;2022-11-20T06:43:11;3.53;;;2.70;;
956;SDS011;465;48.802;9.224;2022-11-20T06:45:38;2.90;;;2.50;;
956;SDS011;465;48.802;9.224;2022-11-20T06:48:05;3.30;;;3.00;;
956;SDS011;465;48.802;9.224;2022-11-20T06:50:32;2.50;;;2.30;;
956;SDS011;465;48.802;9.224;2022-11-20T06:53:00;3.13;;;2.33;;
956;SDS011;465;48.802;9.224;2022-11-20T06:55:29;4.13;;;2.90;;
956;SDS011;465;48.802;9.224;2022-11-20T06:57:57;3.87;;;2.90;;
956;SDS011;465;48.802;9.224;2022-11-20T07:00:24;6.20;;;3.17;;
956;SDS011;465;48.802;9.224;2022-11-20T07:02:50;3.23;;;2.80;;
956;SDS011;465;48.802;9.224;2022-11-20T07:05:17;3.13;;;2.90;;
956;SDS011;465;48.802;9.224;2022-11-20T07:07:44;3.33;;;2.77;;
956;SDS011;465;48.802;9.224;2022-11-20T07:10:11;4.30;;;2.97;;
956;SDS011;465;48.802;9.224;2022-11-20T07:12:39;2.87;;;2.47;;
956;SDS011;465;48.802;9.224;2022-11-20T07:15:06;3.10;;;2.80;;
956;SDS011;465;48.802;9.224;2022-11-20T07:17:33;2.97;;;2.67;;
956;SDS011;465;48.802;9.224;2022-11-20T07:20:00;3.20;;;2.83;;
956;SDS011;465;48.802;9.224;2022-11-20T07:22:27;5.53;;;2.80;;
956;SDS011;465;48.802;9.224;2022-11-20T07:24:54;3.73;;;2.80;;
956;SDS011;465;48.802;9.224;2022-11-20T07:27:20;4.10;;;3.43;;
956;SDS011;465;48.802;9.224;2022-11-20T07:29:49;3.30;;;2.70;;
956;SDS011;465;48.802;9.224;2022-11-20T07:32:15;3.20;;;2.90;;
956;SDS011;465;48.802;9.224;2022-11-20T07:34:42;5.20;;;2.57;;
956;SDS011;465;48.802;9.224;2022-11-20T07:37:09;3.00;;;2.70;;
956;SDS011;465;48.802;9.224;2022-11-20T07:39:36;3.17;;;2.57;;
956;SDS011;465;48.802;9.224;2022-11-20T07:42:03;4.50;;;3.00;;
956;SDS011;465;48.802;9.224;2022-11-20T07:44:29;4.10;;;3.10;;
956;SDS011;465;48.802;9.224;2022-11-20T07:46:57;3.47;;;3.07;;
956;SDS011;465;48.802;9.224;2022-11-20T07:49:24;2.93;;;2.33;;
956;SDS011;465;48.802;9.224;2022-11-20T07:51:51;4.13;;;3.03;;
956;SDS011;465;48.802;9.224;2022-11-20T07:54:19;2.57;;;2.37;;
956;SDS011;465;48.802;9.224;2022-11-20T07:56:46;3.07;;;2.80;;
956;SDS011;465;48.802;9.224;2022-11-20T07:59:13;3.00;;;2.47;;
956;SDS011;465;48.802;9.224;2022-11-20T08:01:41;3.40;;;3.10;;
956;SDS011;465;48.802;9.224;2022-11-20T08:04:10;3.70;;;2.50;;
956;SDS011;465;48.802;9.224;2022-11-20T08:06:37;4.33;;;2.63;;
956;SDS011;465;48.802;9.224;2022-11-20T08:09:04;4.40;;;2.80;;
956;SDS011;465;48.802;9.224;2022-11-20T08:11:30;3.23;;;2.50;;
956;SDS011;465;48.802;9.224;2022-11-20T08:14:15;3.17;;;2.43;;
956;SDS011;465;48.802;9.224;2022-11-20T08:16:42;2.60;;;2.40;;
956;SDS011;465;48.802;9.224;2022-11-20T08:19:12;2.30;;;2.10;;
956;SDS011;465;48.802;9.224;2022-11-20T08:21:39;3.23;;;2.07;;
956;SDS011;465;48.802;9.224;2022-11-20T08:24:07;3.40;;;2.30;;
956;SDS011;465;48.802;9.224;2022-11-20T08:26:34;3.20;;;2.40;;
956;SDS011;465;48.802;9.224;2022-11-20T08:29:02;2.90;;;2.17;;
956;SDS011;465;48.802;9.224;2022-11-20T08:31:29;5.30;;;2.43;;
956;SDS011;465;48.802;9.224;2022-11-20T08:33:56;3.50;;;2.43;;
956;SDS011;465;48.802;9.224;2022-11-20T08:36:25;3.27;;;2.60;;
956;SDS011;465;48.802;9.224;2022-11-20T08:38:52;3.53;;;2.43;;
956;SDS011;465;48.802;9.224;2022-11-20T08:41:20;1.70;;;1.30;;
956;SDS011;465;48.802;9.224;2022-11-20T08:43:51;2.50;;;2.30;;
956;SDS011;465;48.802;9.224;2022-11-20T08:46:22;2.27;;;1.97;;
956;SDS011;465;48.802;9.224;2022-11-20T08:48:50;3.33;;;2.30;;
956;SDS011;465;48.802;9.224;2022-11-20T08:51:17;4.40;;;2.80;;
956;SDS011;465;48.802;9.224;2022-11-20T08:53:46;1.73;;;1.50;;
956;SDS011;465;48.802;9.224;2022-11-20T08:56:14;2.67;;;2.10;;
956;SDS011;465;48.802;9.224;2022-11-20T08:58:41;3.00;;;1.90;;
956;SDS011;465;48.802;9.224;2022-11-20T09:01:08;3.33;;;2.40;;
956;SDS011;465;48.802;9.224;2022-11-20T09:03:35;3.10;;;2.20;;
956;SDS011;465;48.802;9.224;2022-11-20T09:06:02;2.13;;;1.90;;
956;SDS011;465;48.802;9.224;2022-11-20T09:08:31;1.93;;;1.67;;
956;SDS011;465;48.802;9.224;2022-11-20T09:10:59;2.57;;;1.57;;
956;SDS011;465;48.802;9.224;2022-11-20T09:13:26;2.10;;;1.90;;
956;SDS011;465;48.802;9.224;2022-11-20T09:15:54;2.07;;;1.80;;
956;SDS011;465;48.802;9.224;2022-11-20T09:18:21;2.13;;;1.90;;
956;SDS011;465;48.802;9.224;2022-11-20T09:20:48;2.10;;;1.60;;
956;SDS011;465;48.802;9.224;2022-11-20T09:23:15;1.97;;;1.53;;
956;SDS011;465;48.802;9.224;2022-11-20T09:25:42;2.40;;;1.50;;
956;SDS011;465;48.802;9.224;2022-11-20T09:28:10;2.27;;;1.67;;
956;SDS011;465;48.802;9.224;2022-11-20T09:30:37;1.93;;;1.53;;
956;SDS011;465;48.802;9.224;2022-11-20T09:33:04;2.13;;;1.37;;
956;SDS011;465;48.802;9.224;2022-11-20T09:35:31;2.77;;;1.63;;
956;SDS011;465;48.802;9.224;2022-11-20T09:38:03;1.50;;;1.10;;
956;SDS011;465;48.802;9.224;2022-11-20T09:40:30;1.83;;;1.53;;
956;SDS011;465;48.802;9.224;2022-11-20T09:42:58;1.97;;;1.60;;
956;SDS011;465;48.802;9.224;2022-11-20T09:45:46;1.73;;;1.10;;
956;SDS011;465;48.802;9.224;2022-11-20T09:48:25;1.77;;;1.13;;
956;SDS011;465;48.802;9.224;2022-11-20T09:51:04;1.97;;;1.60;;
956;SDS011;465;48.802;9.224;2022-11-20T09:53:41;2.07;;;1.10;;
956;SDS011;465;48.802;9.224;2022-11-20T09:56:15;1.67;;;1.27;;
956;SDS011;465;48.802;9.224;2022-11-20T09:58:45;1.23;;;0.83;;
956;SDS011;465;48.802;9.224;2022-11-20T10:01:18;2.50;;;1.17;;
956;SDS011;465;48.802;9.224;2022-11-20T10:03:49;1.63;;;1.17;;
956;SDS011;465;48.802;9.224;2022-11-20T10:06:23;1.30;;;0.90;;
956;SDS011;465;48.802;9.224;2022-11-20T10:08:55;1.10;;;0.80;;
956;SDS011;465;48.802;9.224;2022-11-20T10:11:32;1.77;;;0.80;;
956;SDS011;465;48.802;9.224;2022-11-20T10:14:10;1.60;;;1.00;;
956;SDS011;465;48.802;9.224;2022-11-20T10:16:49;1.20;;;0.70;;
956;SDS011;465;48.802;9.224;2022-11-20T10:19:29;1.97;;;1.40;;
956;SDS011;465;48.802;9.224;2022-11-20T10:22:09;2.13;;;1.67;;
956;SDS011;465;48.802;9.224;2022-11-20T10:24:52;4.00;;;1.90;;
956;SDS011;465;48.802;9.224;2022-11-20T10:30:16;2.10;;;1.37;;
956;SDS011;465;48.802;9.224;2022-11-20T10:32:47;1.90;;;0.90;;
956;SDS011;465;48.802;9.224;2022-11-20T10:35:19;1.10;;;0.90;;
956;SDS011;465;48.802;9.224;2022-11-20T10:37:50;3.40;;;2.20;;
956;SDS011;465;48.802;9.224;2022-11-20T10:40:23;1.50;;;1.00;;
956;SDS011;465;48.802;9.224;2022-11-20T10:42:58;1.30;;;0.87;;
956;SDS011;465;48.802;9.224;2022-11-20T10:45:32;1.57;;;0.87;;
956;SDS011;465;48.802;9.224;2022-11-20T10:48:12;1.30;;;1.00;;
956;SDS011;465;48.802;9.224;2022-11-20T10:50:47;4.53;;;2.63;;
956;SDS011;465;48.802;9.224;2022-11-20T10:53:31;2.57;;;1.50;;
956;SDS011;465;48.802;9.224;2022-11-20T10:56:14;2.37;;;1.60;;
956;SDS011;465;48.802;9.224;2022-11-20T10:58:46;5.93;;;1.80;;
956;SDS011;465;48.802;9.224;2022-11-20T11:01:20;3.33;;;2.03;;
956;SDS011;465;48.802;9.224;2022-11-20T11:03:49;8.00;;;4.17;;
956;SDS011;465;48.802;9.224;2022-11-20T11:06:21;4.73;;;2.67;;
956;SDS011;465;48.802;9.224;2022-11-20T11:08:56;4.20;;;1.90;;
956;SDS011;465;48.802;9.224;2022-11-20T11:11:29;3.10;;;1.80;;
956;SDS011;465;48.802;9.224;2022-11-20T11:14:04;3.83;;;2.63;;
956;SDS011;465;48.802;9.224;2022-11-20T11:16:32;4.17;;;2.73;;
956;SDS011;465;48.802;9.224;2022-11-20T11:19:12;2.80;;;1.90;;
956;SDS011;465;48.802;9.224;2022-11-20T11:21:44;2.90;;;1.73;;
956;SDS011;465;48.802;9.224;2022-11-20T11:24:15;3.50;;;2.70;;
956;SDS011;465;48.802;9.224;2022-11-20T11:26:55;2.30;;;2.10;;
956;SDS011;465;48.802;9.224;2022-11-20T11:29:24;2.43;;;1.33;;
956;SDS011;465;48.802;9.224;2022-11-20T11:32:02;1.90;;;1.63;;
956;SDS011;465;48.802;9.224;2022-11-20T11:34:31;2.73;;;1.57;;
956;SDS011;465;48.802;9.224;2022-11-20T11:36:58;2.87;;;1.33;;
956;SDS011;465;48.802;9.224;2022-11-20T11:39:26;2.17;;;1.43;;
956;SDS011;465;48.802;9.224;2022-11-20T11:41:55;2.83;;;1.50;;
956;SDS011;465;48.802;9.224;2022-11-20T11:44:23;1.57;;;1.13;;
956;SDS011;465;48.802;9.224;2022-11-20T11:47:21;1.80;;;1.30;;
956;SDS011;465;48.802;9.224;2022-11-20T11:50:01;2.63;;;1.60;;
956;SDS011;465;48.802;9.224;2022-11-20T11:52:41;2.50;;;1.50;;
956;SDS011;465;48.802;9.224;2022-11-20T11:55:14;2.63;;;1.40;;
956;SDS011;465;48.802;9.224;2022-11-20T11:57:46;3.90;;;1.60;;
956;SDS011;465;48.802;9.224;2022-11-20T12:00:18;3.23;;;1.50;;
956;SDS011;465;48.802;9.224;2022-11-20T12:02:51;4.50;;;1.60;;
956;SDS011;465;48.802;9.224;2022-11-20T12:05:29;2.43;;;1.83;;
956;SDS011;465;48.802;9.224;2022-11-20T12:08:02;2.10;;;1.60;;
956;SDS011;465;48.802;9.224;2022-11-20T12:10:38;1.70;;;1.30;;
956;SDS011;465;48.802;9.224;2022-11-20T12:13:14;1.70;;;1.23;;
956;SDS011;465;48.802;9.224;2022-11-20T12:15:47;2.80;;;1.87;;
956;SDS011;465;48.802;9.224;2022-11-20T12:18:17;3.60;;;2.10;;
956;SDS011;465;48.802;9.224;2022-11-20T12:20:54;3.50;;;1.97;;
956;SDS011;465;48.802;9.224;2022-11-20T12:23:35;5.20;;;2.97;;
956;SDS011;465;48.802;9.224;2022-11-20T12:26:14;5.40;;;1.80;;
956;SDS011;465;48.802;9.224;2022-11-20T12:28:53;3.13;;;1.83;;
956;SDS011;465;48.802;9.224;2022-11-20T12:31:35;2.63;;;1.73;;
956;SDS011;465;48.802;9.224;2022-11-20T12:37:07;1.80;;;1.10;;
956;SDS011;465;48.802;9.224;2022-11-20T12:39:43;1.93;;;1.20;;
956;SDS011;465;48.802;9.224;2022-11-20T12:42:27;1.50;;;1.00;;
956;SDS011;465;48.802;9.224;2022-11-20T12:45:28;3.13;;;2.10;;
956;SDS011;465;48.802;9.224;2022-11-20T12:48:42;3.80;;;2.10;;
956;SDS011;465;48.802;9.224;2022-11-20T12:51:23;1.90;;;1.40;;
956;SDS011;465;48.802;9.224;2022-11-20T12:57:06;2.20;;;1.37;;
956;SDS011;465;48.802;9.224;2022-11-20T12:59:51;3.97;;;2.07;;
956;SDS011;465;48.802;9.224;2022-11-20T13:02:33;6.03;;;1.70;;
956;SDS011;465;48.802;9.224;2022-11-20T13:05:15;11.53;;;8.50;;
956;SDS011;465;48.802;9.224;2022-11-20T13:07:46;4.17;;;2.40;;
956;SDS011;465;48.802;9.224;2022-11-20T13:10:18;10.80;;;6.10;;
956;SDS011;465;48.802;9.224;2022-11-20T13:12:52;4.10;;;2.20;;
956;SDS011;465;48.802;9.224;2022-11-20T13:15:26;4.20;;;2.80;;
956;SDS011;465;48.802;9.224;2022-11-20T13:18:02;4.10;;;1.30;;
956;SDS011;465;48.802;9.224;2022-11-20T13:20:34;3.50;;;1.60;;
956;SDS011;465;48.802;9.224;2022-11-20T13:23:02;5.53;;;3.43;;
956;SDS011;465;48.802;9.224;2022-11-20T13:25:30;4.27;;;1.80;;
956;SDS011;465;48.802;9.224;2022-11-20T13:27:59;2.83;;;1.30;;
956;SDS011;465;48.802;9.224;2022-11-20T13:30:27;3.87;;;2.67;;
956;SDS011;465;48.802;9.224;2022-11-20T13:32:56;5.27;;;2.80;;
956;SDS011;465;48.802;9.224;2022-11-20T13:35:27;3.80;;;1.67;;
956;SDS011;465;48.802;9.224;2022-11-20T13:38:05;4.80;;;2.83;;
956;SDS011;465;48.802;9.224;2022-11-20T13:40:35;7.07;;;3.03;;
956;SDS011;465;48.802;9.224;2022-11-20T13:43:08;4.93;;;2.50;;
956;SDS011;465;48.802;9.224;2022-11-20T13:45:42;4.27;;;2.10;;
956;SDS011;465;48.802;9.224;2022-11-20T13:48:21;3.80;;;1.63;;
956;SDS011;465;48.802;9.224;2022-11-20T13:50:54;3.90;;;1.47;;
956;SDS011;465;48.802;9.224;2022-11-20T13:53:31;1.60;;;0.90;;
956;SDS011;465;48.802;9.224;2022-11-20T13:56:14;1.83;;;1.00;;
956;SDS011;465;48.802;9.224;2022-11-20T13:58:51;2.73;;;1.43;;
956;SDS011;465;48.802;9.224;2022-11-20T14:01:29;2.63;;;1.23;;
956;SDS011;465;48.802;9.224;2022-11-20T14:03:57;2.53;;;1.03;;
956;SDS011;465;48.802;9.224;2022-11-20T14:06:26;2.40;;;1.53;;
956;SDS011;465;48.802;9.224;2022-11-20T14:08:54;1.97;;;1.07;;
956;SDS011;465;48.802;9.224;2022-11-20T14:11:23;2.80;;;1.03;;
956;SDS011;465;48.802;9.224;2022-11-20T14:13:52;1.87;;;1.20;;
956;SDS011;465;48.802;9.224;2022-11-20T14:16:21;4.40;;;1.27;;
956;SDS011;465;48.802;9.224;2022-11-20T14:18:48;1.83;;;1.10;;
956;SDS011;465;48.802;9.224;2022-11-20T14:21:21;4.67;;;1.70;;
956;SDS011;465;48.802;9.224;2022-11-20T14:23:52;4.30;;;2.57;;
956;SDS011;465;48.802;9.224;2022-11-20T14:26:20;3.97;;;2.27;;
956;SDS011;465;48.802;9.224;2022-11-20T14:28:49;2.20;;;1.27;;
956;SDS011;465;48.802;9.224;2022-11-20T14:31:19;1.90;;;1.10;;
956;SDS011;465;48.802;9.224;2022-11-20T14:33:50;2.50;;;1.37;;
956;SDS011;465;48.802;9.224;2022-11-20T14:36:18;1.67;;;1.13;;
956;SDS011;465;48.802;9.224;2022-11-20T14:38:47;2.57;;;2.17;;
956;SDS011;465;48.802;9.224;2022-11-20T14:41:16;5.33;;;2.00;;
956;SDS011;465;48.802;9.224;2022-11-20T14:43:47;4.10;;;1.63;;
956;SDS011;465;48.802;9.224;2022-11-20T14:46:17;3.00;;;1.63;;
956;SDS011;465;48.802;9.224;2022-11-20T14:48:44;2.30;;;1.70;;
956;SDS011;465;48.802;9.224;2022-11-20T14:51:23;2.37;;;1.40;;
956;SDS011;465;48.802;9.224;2022-11-20T14:53:52;2.23;;;1.60;;
956;SDS011;465;48.802;9.224;2022-11-20T14:56:20;3.50;;;2.13;;
956;SDS011;465;48.802;9.224;2022-11-20T14:58:56;4.67;;;2.17;;
956;SDS011;465;48.802;9.224;2022-11-20T15:01:27;4.40;;;1.40;;
956;SDS011;465;48.802;9.224;2022-11-20T15:03:59;3.53;;;1.60;;
956;SDS011;465;48.802;9.224;2022-11-20T15:06:27;2.33;;;1.40;;
956;SDS011;465;48.802;9.224;2022-11-20T15:08:54;2.60;;;1.50;;
956;SDS011;465;48.802;9.224;2022-11-20T15:11:23;2.80;;;1.87;;
956;SDS011;465;48.802;9.224;2022-11-20T15:13:56;2.50;;;1.63;;
956;SDS011;465;48.802;9.224;2022-11-20T15:16:24;8.10;;;1.60;;
956;SDS011;465;48.802;9.224;2022-11-20T15:18:52;2.80;;;1.60;;
956;SDS011;465;48.802;9.224;2022-11-20T15:21:20;2.60;;;1.30;;
956;SDS011;465;48.802;9.224;2022-11-20T15:23:47;3.00;;;2.13;;
956;SDS011;465;48.802;9.224;2022-11-20T15:26:14;2.20;;;1.60;;
956;SDS011;465;48.802;9.224;2022-11-20T15:28:46;3.47;;;2.17;;
956;SDS011;465;48.802;9.224;2022-11-20T15:31:17;4.93;;;1.70;;
956;SDS011;465;48.802;9.224;2022-11-20T15:33:45;2.90;;;1.50;;
956;SDS011;465;48.802;9.224;2022-11-20T15:36:12;5.30;;;1.60;;
956;SDS011;465;48.802;9.224;2022-11-20T15:38:40;3.40;;;1.40;;
956;SDS011;465;48.802;9.224;2022-11-20T15:41:07;2.93;;;2.20;;
956;SDS011;465;48.802;9.224;2022-11-20T15:43:35;6.30;;;1.73;;
956;SDS011;465;48.802;9.224;2022-11-20T15:46:03;2.50;;;1.83;;
956;SDS011;465;48.802;9.224;2022-11-20T15:48:35;3.90;;;1.80;;
956;SDS011;465;48.802;9.224;2022-11-20T15:51:06;2.83;;;1.30;;
956;SDS011;465;48.802;9.224;2022-11-20T15:53:44;2.53;;;1.70;;
956;SDS011;465;48.802;9.224;2022-11-20T15:56:11;1.77;;;1.30;;
956;SDS011;465;48.802;9.224;2022-11-20T15:58:39;2.40;;;2.03;;
956;SDS011;465;48.802;9.224;2022-11-20T16:01:09;3.47;;;1.80;;
956;SDS011;465;48.802;9.224;2022-11-20T16:03:38;5.03;;;2.20;;
956;SDS011;465;48.802;9.224;2022-11-20T16:06:05;5.40;;;2.00;;
956;SDS011;465;48.802;9.224;2022-11-20T16:08:32;2.50;;;1.80;;
956;SDS011;465;48.802;9.224;2022-11-20T16:10:59;2.23;;;1.73;;